PWSweather.com
Personal Weather Stations
Station Observations
J24K28P63
Vysocina, PocatkyCZ 39464

VysocinaPocatkyCZ 39464

Lat: 49.2594238, Lon: 15.2331769

Elevation: 2011

Station Type: Vantage Pro2+

http://meteo-jirkalina.com

Latest ConditionsUpdated 6:00:02 PM GMT+01:01 Sunday, Jan 26, 2020
Currently Today's Max Today's Min Today's Average
Temperature 32.6°F0.3°C 34.1°F1.2°C 25.1°F-3.8°C 32.4°F0.2°C
Dew Point 31.3°F-0.4°C 32.4°F0.2°C 24.9°F-3.9°C 31.3°F-0.4°C
Winds 2.0 mph SE3.2 kmh SE 3.0 mph -4.8 kmh - - 0.9 mph 1.4 kmh
Wind Gusts 3.0 mph4.8 kmh 7.0 mph11.3 kmh - -
Humidity 95% 100% 92% 96%
Pressure 30.15 in1021.0 mb 30.22 in1023.4 mb 30.10 in1019.3 mb -
Hour Temp Dew Point Humidity Winds Wind Gusts Pressure Precip Precip Rate Daily Precip Total
06:00 PM 32.6°F0.3°C 31.3°F-0.4°C 95% 2.0 mph SE3.2 kmh SE 3.0 mph4.8 kmh 30.15 in1021.0 mb - 0.00 in0.0 mm 0.00 in0.0 mm
05:50 PM 32.7°F0.4°C 31.4°F-0.3°C 95% 3.0 mph SE4.8 kmh SE 3.0 mph4.8 kmh 30.15 in1021.0 mb - 0.00 in0.0 mm 0.00 in0.0 mm
05:40 PM 32.8°F0.4°C 31.5°F-0.3°C 95% 1.0 mph SE1.6 kmh SE 2.0 mph3.2 kmh 30.15 in1021.0 mb - 0.00 in0.0 mm 0.00 in0.0 mm
05:30 PM 32.8°F0.4°C 31.5°F-0.3°C 95% 2.0 mph SE3.2 kmh SE 3.0 mph4.8 kmh 30.15 in1021.0 mb - 0.00 in0.0 mm 0.00 in0.0 mm
05:20 PM 32.9°F0.5°C 31.6°F-0.2°C 95% 2.0 mph SE3.2 kmh SE 2.0 mph3.2 kmh 30.16 in1021.3 mb - 0.00 in0.0 mm 0.00 in0.0 mm
05:10 PM 32.9°F0.5°C 31.6°F-0.2°C 95% 2.0 mph SE3.2 kmh SE 3.0 mph4.8 kmh 30.16 in1021.3 mb - 0.00 in0.0 mm 0.00 in0.0 mm
05:00 PM 32.9°F0.5°C 31.6°F-0.2°C 95% 2.0 mph SE3.2 kmh SE 3.0 mph4.8 kmh 30.15 in1021.0 mb - 0.00 in0.0 mm 0.00 in0.0 mm
04:50 PM 32.9°F0.5°C 31.6°F-0.2°C 95% 1.0 mph SE1.6 kmh SE 2.0 mph3.2 kmh 30.15 in1021.0 mb - 0.00 in0.0 mm 0.00 in0.0 mm
04:40 PM 33.0°F0.6°C 31.7°F-0.2°C 95% 2.0 mph SE3.2 kmh SE 3.0 mph4.8 kmh 30.15 in1021.0 mb - 0.00 in0.0 mm 0.00 in0.0 mm
04:30 PM 32.2°F0.1°C 31.7°F-0.2°C 98% Calm Calm -- 30.10 in1019.3 mb - 0.00 in0.0 mm 0.01 in0.3 mm
04:20 PM 33.2°F0.7°C 31.9°F-0.1°C 95% 1.0 mph SE1.6 kmh SE 1.0 mph1.6 kmh 30.16 in1021.3 mb - 0.00 in0.0 mm 0.00 in0.0 mm
04:10 PM 33.3°F0.7°C 32.0°F0.0°C 95% 1.0 mph SE1.6 kmh SE 2.0 mph3.2 kmh 30.16 in1021.3 mb - 0.00 in0.0 mm 0.00 in0.0 mm
04:00 PM 33.3°F0.7°C 32.0°F0.0°C 95% 2.0 mph SE3.2 kmh SE 3.0 mph4.8 kmh 30.16 in1021.3 mb - 0.00 in0.0 mm 0.00 in0.0 mm
03:50 PM 33.3°F0.7°C 32.0°F0.0°C 95% 2.0 mph SE3.2 kmh SE 5.0 mph8.0 kmh 30.16 in1021.3 mb - 0.00 in0.0 mm 0.00 in0.0 mm
03:40 PM 33.3°F0.7°C 31.8°F-0.1°C 94% 3.0 mph SE4.8 kmh SE 7.0 mph11.3 kmh 30.16 in1021.3 mb - 0.00 in0.0 mm 0.00 in0.0 mm
03:30 PM 31.9°F-0.1°C 31.4°F-0.3°C 98% Calm Calm -- 30.11 in1019.6 mb - 0.00 in0.0 mm 0.01 in0.3 mm
03:20 PM 33.5°F0.8°C 32.0°F0.0°C 94% 3.0 mph SE4.8 kmh SE 3.0 mph4.8 kmh 30.16 in1021.3 mb - 0.00 in0.0 mm 0.00 in0.0 mm
03:10 PM 33.6°F0.9°C 32.1°F0.1°C 94% 2.0 mph SE3.2 kmh SE 3.0 mph4.8 kmh 30.16 in1021.3 mb - 0.00 in0.0 mm 0.00 in0.0 mm
03:00 PM 33.7°F0.9°C 32.4°F0.2°C 95% 2.0 mph SE3.2 kmh SE 5.0 mph8.0 kmh 30.16 in1021.3 mb - 0.00 in0.0 mm 0.00 in0.0 mm
02:50 PM 33.6°F0.9°C 32.0°F0.0°C 94% 3.0 mph SE4.8 kmh SE 3.0 mph4.8 kmh 30.17 in1021.7 mb - 0.00 in0.0 mm 0.00 in0.0 mm
02:40 PM 33.7°F0.9°C 32.2°F0.1°C 94% 2.0 mph SE3.2 kmh SE 3.0 mph4.8 kmh 30.17 in1021.7 mb - 0.00 in0.0 mm 0.00 in0.0 mm
02:30 PM 31.9°F-0.1°C 31.7°F-0.2°C 99% 0.8 mph SW1.3 kmh SW 3.0 mph4.8 kmh 30.12 in1020.0 mb - 0.00 in0.0 mm 0.01 in0.3 mm
02:20 PM 33.7°F0.9°C 32.2°F0.1°C 94% 3.0 mph SE4.8 kmh SE 3.0 mph4.8 kmh 30.17 in1021.7 mb - 0.00 in0.0 mm 0.00 in0.0 mm
02:10 PM 33.6°F0.9°C 32.1°F0.1°C 94% Calm Calm 3.0 mph4.8 kmh 30.17 in1021.7 mb - 0.00 in0.0 mm 0.00 in0.0 mm
02:00 PM 33.6°F0.9°C 32.1°F0.1°C 94% 2.0 mph SE3.2 kmh SE 3.0 mph4.8 kmh 30.18 in1022.0 mb - 0.00 in0.0 mm 0.00 in0.0 mm
01:50 PM 33.7°F0.9°C 32.2°F0.1°C 94% 2.0 mph SE3.2 kmh SE 3.0 mph4.8 kmh 30.18 in1022.0 mb - 0.00 in0.0 mm 0.00 in0.0 mm
01:40 PM 33.7°F0.9°C 31.9°F-0.1°C 93% 2.0 mph SE3.2 kmh SE 3.0 mph4.8 kmh 30.18 in1022.0 mb - 0.00 in0.0 mm 0.00 in0.0 mm
01:30 PM 32.2°F0.1°C 32.0°F0.0°C 99% Calm Calm -- 30.12 in1020.0 mb - 0.00 in0.0 mm 0.01 in0.3 mm
01:20 PM 33.9°F1.1°C 31.9°F-0.1°C 92% 1.0 mph SE1.6 kmh SE 3.0 mph4.8 kmh 30.18 in1022.0 mb - 0.00 in0.0 mm 0.00 in0.0 mm
01:10 PM 34.0°F1.1°C 32.2°F0.1°C 93% 2.0 mph SE3.2 kmh SE 3.0 mph4.8 kmh 30.18 in1022.0 mb - 0.00 in0.0 mm 0.00 in0.0 mm
01:00 PM 34.1°F1.2°C 32.0°F0.0°C 92% 2.0 mph SE3.2 kmh SE 3.0 mph4.8 kmh 30.19 in1022.4 mb - 0.00 in0.0 mm 0.00 in0.0 mm
12:50 PM 33.9°F1.1°C 32.1°F0.1°C 93% 2.0 mph SE3.2 kmh SE 3.0 mph4.8 kmh 30.19 in1022.4 mb - 0.00 in0.0 mm 0.00 in0.0 mm
12:40 PM 33.8°F1.0°C 32.0°F0.0°C 93% 2.0 mph SE3.2 kmh SE 3.0 mph4.8 kmh 30.19 in1022.4 mb - 0.00 in0.0 mm 0.00 in0.0 mm
12:30 PM 31.8°F-0.1°C 31.6°F-0.2°C 99% Calm Calm -- 30.14 in1020.7 mb - 0.00 in0.0 mm 0.01 in0.3 mm
12:20 PM 33.8°F1.0°C 32.0°F0.0°C 93% 1.0 mph SE1.6 kmh SE 1.0 mph1.6 kmh 30.19 in1022.4 mb - 0.00 in0.0 mm 0.00 in0.0 mm
12:10 PM 33.6°F0.9°C 31.5°F-0.3°C 92% 1.0 mph SSE1.6 kmh SSE 2.0 mph3.2 kmh 30.19 in1022.4 mb - 0.00 in0.0 mm 0.00 in0.0 mm
12:00 PM 31.6°F-0.2°C 31.6°F-0.2°C 100% Calm Calm -- 30.14 in1020.7 mb - 0.00 in0.0 mm 0.01 in0.3 mm
11:50 AM 33.7°F0.9°C 31.6°F-0.2°C 92% 3.0 mph SSE4.8 kmh SSE 6.0 mph9.7 kmh 30.20 in1022.7 mb - 0.00 in0.0 mm 0.00 in0.0 mm
11:40 AM 33.7°F0.9°C 31.6°F-0.2°C 92% 1.0 mph SSE1.6 kmh SSE 3.0 mph4.8 kmh 30.20 in1022.7 mb - 0.00 in0.0 mm 0.00 in0.0 mm
11:30 AM 31.3°F-0.4°C 31.3°F-0.4°C 100% Calm Calm -- 30.15 in1021.0 mb - 0.00 in0.0 mm 0.01 in0.3 mm
11:20 AM 33.7°F0.9°C 31.9°F-0.1°C 93% 3.0 mph S4.8 kmh S 6.0 mph9.7 kmh 30.20 in1022.7 mb - 0.00 in0.0 mm 0.00 in0.0 mm
11:10 AM 33.4°F0.8°C 31.6°F-0.2°C 93% 2.0 mph S3.2 kmh S 3.0 mph4.8 kmh 30.21 in1023.0 mb - 0.00 in0.0 mm 0.00 in0.0 mm
11:00 AM 33.4°F0.8°C 31.6°F-0.2°C 93% 1.0 mph SSW1.6 kmh SSW 3.0 mph4.8 kmh 30.21 in1023.0 mb - 0.00 in0.0 mm 0.00 in0.0 mm
10:50 AM 33.5°F0.8°C 31.7°F-0.2°C 93% Calm Calm 3.0 mph4.8 kmh 30.21 in1023.0 mb - 0.00 in0.0 mm 0.00 in0.0 mm
10:40 AM 33.5°F0.8°C 31.7°F-0.2°C 93% 2.0 mph SSW3.2 kmh SSW 3.0 mph4.8 kmh 30.21 in1023.0 mb - 0.00 in0.0 mm 0.00 in0.0 mm
10:30 AM 33.2°F0.7°C 31.4°F-0.3°C 93% Calm Calm 2.0 mph3.2 kmh 30.21 in1023.0 mb - 0.00 in0.0 mm 0.00 in0.0 mm
10:20 AM 33.3°F0.7°C 31.8°F-0.1°C 94% 2.0 mph SSW3.2 kmh SSW 3.0 mph4.8 kmh 30.21 in1023.0 mb - 0.00 in0.0 mm 0.00 in0.0 mm
10:10 AM 33.1°F0.6°C 31.6°F-0.2°C 94% Calm Calm 2.0 mph3.2 kmh 30.21 in1023.0 mb - 0.00 in0.0 mm 0.00 in0.0 mm
10:00 AM 27.7°F-2.4°C 27.4°F-2.6°C 99% Calm Calm -- 30.15 in1021.0 mb - 0.00 in0.0 mm 0.00 in0.0 mm
09:50 AM 33.0°F0.6°C 31.8°F-0.1°C 95% Calm Calm 2.0 mph3.2 kmh 30.21 in1023.0 mb - 0.00 in0.0 mm 0.00 in0.0 mm
09:40 AM 33.0°F0.6°C 31.8°F-0.1°C 95% Calm Calm 2.0 mph3.2 kmh 30.21 in1023.0 mb - 0.00 in0.0 mm 0.00 in0.0 mm
09:30 AM 33.0°F0.6°C 32.0°F0.0°C 96% 1.0 mph SSW1.6 kmh SSW 2.0 mph3.2 kmh 30.21 in1023.0 mb - 0.00 in0.0 mm 0.00 in0.0 mm
09:20 AM 33.0°F0.6°C 32.0°F0.0°C 96% Calm Calm 1.0 mph1.6 kmh 30.20 in1022.7 mb - 0.00 in0.0 mm 0.00 in0.0 mm
09:10 AM 32.8°F0.4°C 32.0°F0.0°C 97% 1.0 mph SSW1.6 kmh SSW 1.0 mph1.6 kmh 30.20 in1022.7 mb - 0.00 in0.0 mm 0.00 in0.0 mm
09:00 AM 32.8°F0.4°C 32.0°F0.0°C 97% Calm Calm -- 30.20 in1022.7 mb - 0.00 in0.0 mm 0.00 in0.0 mm
08:50 AM 32.7°F0.4°C 31.9°F-0.1°C 97% Calm Calm -- 30.20 in1022.7 mb - 0.00 in0.0 mm 0.00 in0.0 mm
08:40 AM 32.6°F0.3°C 31.8°F-0.1°C 97% Calm Calm -- 30.20 in1022.7 mb - 0.00 in0.0 mm 0.00 in0.0 mm
08:30 AM 32.5°F0.3°C 31.7°F-0.2°C 97% 1.0 mph SSW1.6 kmh SSW 2.0 mph3.2 kmh 30.20 in1022.7 mb - 0.00 in0.0 mm 0.00 in0.0 mm
08:20 AM 32.4°F0.2°C 31.6°F-0.2°C 97% 1.0 mph SSW1.6 kmh SSW 2.0 mph3.2 kmh 30.20 in1022.7 mb - 0.00 in0.0 mm 0.00 in0.0 mm
08:10 AM 32.4°F0.2°C 31.6°F-0.2°C 97% 1.0 mph SSW1.6 kmh SSW 3.0 mph4.8 kmh 30.20 in1022.7 mb - 0.00 in0.0 mm 0.00 in0.0 mm
08:00 AM 32.3°F0.2°C 31.5°F-0.3°C 97% Calm Calm -- 30.20 in1022.7 mb - 0.00 in0.0 mm 0.00 in0.0 mm
07:50 AM 32.3°F0.2°C 31.5°F-0.3°C 97% Calm Calm 1.0 mph1.6 kmh 30.20 in1022.7 mb - 0.00 in0.0 mm 0.00 in0.0 mm
07:40 AM 32.2°F0.1°C 31.4°F-0.3°C 97% Calm Calm -- 30.20 in1022.7 mb - 0.00 in0.0 mm 0.00 in0.0 mm
07:30 AM 25.1°F-3.8°C 24.9°F-3.9°C 99% Calm Calm -- 30.15 in1021.0 mb - 0.00 in0.0 mm 0.00 in0.0 mm
07:20 AM 32.2°F0.1°C 31.4°F-0.3°C 97% Calm Calm -- 30.20 in1022.7 mb - 0.00 in0.0 mm 0.00 in0.0 mm
07:10 AM 32.2°F0.1°C 31.7°F-0.2°C 98% 2.0 mph SSW3.2 kmh SSW 3.0 mph4.8 kmh 30.20 in1022.7 mb - 0.00 in0.0 mm 0.00 in0.0 mm
07:00 AM 32.2°F0.1°C 31.7°F-0.2°C 98% 2.0 mph SSW3.2 kmh SSW 3.0 mph4.8 kmh 30.20 in1022.7 mb - 0.00 in0.0 mm 0.00 in0.0 mm
06:50 AM 32.1°F0.1°C 31.6°F-0.2°C 98% Calm Calm 1.0 mph1.6 kmh 30.20 in1022.7 mb - 0.00 in0.0 mm 0.00 in0.0 mm
06:40 AM 32.1°F0.1°C 31.6°F-0.2°C 98% Calm Calm -- 30.20 in1022.7 mb - 0.00 in0.0 mm 0.00 in0.0 mm
06:30 AM 32.1°F0.1°C 31.6°F-0.2°C 98% Calm Calm -- 30.20 in1022.7 mb - 0.00 in0.0 mm 0.00 in0.0 mm
06:20 AM 32.1°F0.1°C 31.6°F-0.2°C 98% 2.0 mph SSW3.2 kmh SSW 3.0 mph4.8 kmh 30.19 in1022.4 mb - 0.00 in0.0 mm 0.00 in0.0 mm
06:10 AM 32.1°F0.1°C 31.6°F-0.2°C 98% 1.0 mph SSW1.6 kmh SSW 3.0 mph4.8 kmh 30.19 in1022.4 mb - 0.00 in0.0 mm 0.00 in0.0 mm
06:00 AM 32.1°F0.1°C 31.3°F-0.4°C 97% Calm Calm 2.0 mph3.2 kmh 30.19 in1022.4 mb - 0.00 in0.0 mm 0.00 in0.0 mm
05:50 AM 32.0°F0.0°C 31.3°F-0.4°C 97% Calm Calm -- 30.19 in1022.4 mb - 0.00 in0.0 mm 0.00 in0.0 mm
05:40 AM 32.0°F0.0°C 31.3°F-0.4°C 97% Calm Calm -- 30.19 in1022.4 mb - 0.00 in0.0 mm 0.00 in0.0 mm
05:30 AM 32.1°F0.1°C 31.3°F-0.4°C 97% Calm Calm -- 30.19 in1022.4 mb - 0.00 in0.0 mm 0.00 in0.0 mm
05:20 AM 32.1°F0.1°C 31.3°F-0.4°C 97% 1.0 mph SSW1.6 kmh SSW 2.0 mph3.2 kmh 30.19 in1022.4 mb - 0.00 in0.0 mm 0.00 in0.0 mm
05:10 AM 32.1°F0.1°C 31.3°F-0.4°C 97% Calm Calm -- 30.19 in1022.4 mb - 0.00 in0.0 mm 0.00 in0.0 mm
05:00 AM 32.1°F0.1°C 31.3°F-0.4°C 97% Calm Calm 2.0 mph3.2 kmh 30.19 in1022.4 mb - 0.00 in0.0 mm 0.00 in0.0 mm
04:50 AM 32.1°F0.1°C 31.3°F-0.4°C 97% Calm Calm -- 30.20 in1022.7 mb - 0.00 in0.0 mm 0.00 in0.0 mm
04:40 AM 32.1°F0.1°C 31.3°F-0.4°C 97% 2.0 mph SSW3.2 kmh SSW 3.0 mph4.8 kmh 30.20 in1022.7 mb - 0.00 in0.0 mm 0.00 in0.0 mm
04:30 AM 32.1°F0.1°C 31.3°F-0.4°C 97% Calm Calm -- 30.20 in1022.7 mb - 0.00 in0.0 mm 0.00 in0.0 mm
04:20 AM 32.1°F0.1°C 31.3°F-0.4°C 97% Calm Calm -- 30.20 in1022.7 mb - 0.00 in0.0 mm 0.00 in0.0 mm
04:10 AM 32.1°F0.1°C 31.3°F-0.4°C 97% Calm Calm -- 30.20 in1022.7 mb - 0.00 in0.0 mm 0.00 in0.0 mm
04:00 AM 32.1°F0.1°C 31.3°F-0.4°C 97% 1.0 mph SSW1.6 kmh SSW 2.0 mph3.2 kmh 30.20 in1022.7 mb - 0.00 in0.0 mm 0.00 in0.0 mm
03:50 AM 32.1°F0.1°C 31.3°F-0.4°C 97% Calm Calm -- 30.20 in1022.7 mb - 0.00 in0.0 mm 0.00 in0.0 mm
03:40 AM 32.1°F0.1°C 31.3°F-0.4°C 97% Calm Calm -- 30.20 in1022.7 mb - 0.00 in0.0 mm 0.00 in0.0 mm
03:30 AM 26.9°F-2.8°C 26.9°F-2.8°C 100% Calm Calm -- 30.15 in1021.0 mb - 0.00 in0.0 mm 0.00 in0.0 mm
03:20 AM 32.1°F0.1°C 31.3°F-0.4°C 97% Calm Calm -- 30.20 in1022.7 mb - 0.00 in0.0 mm 0.00 in0.0 mm
03:10 AM 32.1°F0.1°C 31.3°F-0.4°C 97% Calm Calm -- 30.20 in1022.7 mb - 0.00 in0.0 mm 0.00 in0.0 mm
03:00 AM 32.1°F0.1°C 31.3°F-0.4°C 97% Calm Calm -- 30.20 in1022.7 mb - 0.00 in0.0 mm 0.00 in0.0 mm
02:50 AM 32.1°F0.1°C 31.3°F-0.4°C 97% Calm Calm -- 30.21 in1023.0 mb - 0.00 in0.0 mm 0.00 in0.0 mm
02:40 AM 32.1°F0.1°C 31.3°F-0.4°C 97% Calm Calm 1.0 mph1.6 kmh 30.21 in1023.0 mb - 0.00 in0.0 mm 0.00 in0.0 mm
02:30 AM 32.1°F0.1°C 31.3°F-0.4°C 97% Calm Calm 3.0 mph4.8 kmh 30.21 in1023.0 mb - 0.00 in0.0 mm 0.00 in0.0 mm
02:20 AM 32.0°F0.0°C 31.3°F-0.4°C 97% Calm Calm -- 30.21 in1023.0 mb - 0.00 in0.0 mm 0.00 in0.0 mm
02:10 AM 32.0°F0.0°C 31.2°F-0.4°C 97% Calm Calm -- 30.21 in1023.0 mb - 0.00 in0.0 mm 0.00 in0.0 mm
02:00 AM 32.0°F0.0°C 31.2°F-0.4°C 97% Calm Calm -- 30.21 in1023.0 mb - 0.00 in0.0 mm 0.00 in0.0 mm
01:50 AM 32.0°F0.0°C 31.2°F-0.4°C 97% Calm Calm -- 30.21 in1023.0 mb - 0.00 in0.0 mm 0.00 in0.0 mm
01:40 AM 32.0°F0.0°C 31.2°F-0.4°C 97% 1.0 mph SSW1.6 kmh SSW 3.0 mph4.8 kmh 30.21 in1023.0 mb - 0.00 in0.0 mm 0.00 in0.0 mm
01:30 AM 31.9°F-0.1°C 31.2°F-0.4°C 97% 2.0 mph SSW3.2 kmh SSW 3.0 mph4.8 kmh 30.21 in1023.0 mb - 0.00 in0.0 mm 0.00 in0.0 mm
01:20 AM 31.9°F-0.1°C 31.2°F-0.4°C 97% Calm Calm -- 30.21 in1023.0 mb - 0.00 in0.0 mm 0.00 in0.0 mm
01:10 AM 31.9°F-0.1°C 31.1°F-0.5°C 97% Calm Calm -- 30.21 in1023.0 mb - 0.00 in0.0 mm 0.00 in0.0 mm
01:00 AM 27.3°F-2.6°C 27.3°F-2.6°C 100% Calm Calm -- 30.17 in1021.7 mb - 0.00 in0.0 mm 0.00 in0.0 mm
12:50 AM 31.9°F-0.1°C 30.9°F-0.6°C 96% Calm Calm -- 30.21 in1023.0 mb - 0.00 in0.0 mm 0.00 in0.0 mm
12:40 AM 31.9°F-0.1°C 30.9°F-0.6°C 96% Calm Calm -- 30.21 in1023.0 mb - 0.00 in0.0 mm 0.00 in0.0 mm
12:30 AM 27.5°F-2.5°C 27.5°F-2.5°C 100% Calm Calm -- 30.17 in1021.7 mb - 0.00 in0.0 mm 0.00 in0.0 mm
12:20 AM 31.8°F-0.1°C 30.8°F-0.7°C 96% Calm Calm -- 30.22 in1023.4 mb - 0.00 in0.0 mm 0.00 in0.0 mm
12:10 AM 31.7°F-0.2°C 30.7°F-0.7°C 96% 1.0 mph SSW1.6 kmh SSW 3.0 mph4.8 kmh 30.22 in1023.4 mb - 0.00 in0.0 mm 0.00 in0.0 mm
12:00 AM 28.1°F-2.2°C 28.1°F-2.2°C 100% Calm Calm -- 30.17 in1021.7 mb - 0.00 in0.0 mm 0.00 in0.0 mm